createdAt,value
2023-05-04T00:11:21.339Z,98610.00
2023-05-04T00:41:24.720Z,98590.59
2023-05-04T01:11:34.106Z,98577.47
2023-05-04T01:41:37.093Z,98556.78
2023-05-04T02:11:40.329Z,98561.13
2023-05-04T02:41:43.247Z,98542.84
2023-05-04T03:11:46.163Z,98540.78
2023-05-04T03:41:49.112Z,98536.91
2023-05-04T04:11:52.053Z,98536.44
2023-05-04T04:41:54.977Z,98516.56
2023-05-04T05:11:58.168Z,98523.84
2023-05-04T05:42:01.208Z,98537.34
2023-05-04T06:12:04.644Z,98539.78
2023-05-04T06:42:07.758Z,98513.97
2023-05-04T07:12:10.706Z,98519.50
2023-05-04T07:42:13.795Z,98495.78
2023-05-04T08:12:16.702Z,98487.13
2023-05-04T08:42:28.277Z,98476.72
2023-05-04T09:12:31.307Z,98463.97
2023-05-04T09:42:34.384Z,98450.16
2023-05-04T10:12:37.499Z,98421.66
2023-05-04T10:42:43.730Z,98366.00
2023-05-04T11:12:46.862Z,98303.88
2023-05-04T11:42:50.930Z,98301.19
2023-05-04T12:12:54.135Z,98252.31
2023-05-04T12:42:57.261Z,98228.78
2023-05-04T13:13:00.305Z,98187.09
2023-05-04T13:43:04.183Z,98166.19
2023-05-04T14:13:07.251Z,98131.63
2023-05-04T14:43:10.721Z,98102.97
2023-05-04T15:13:13.767Z,98062.50
2023-05-04T15:43:19.205Z,98021.94
2023-05-04T16:13:22.243Z,98001.84
2023-05-04T16:43:25.252Z,97991.91
2023-05-04T17:23:47.044Z,97981.25
2023-05-04T17:53:50.180Z,98003.91
2023-05-04T18:23:53.218Z,98016.69
2023-05-04T18:53:56.338Z,98032.41
2023-05-04T19:23:59.273Z,98043.84
2023-05-04T19:54:02.266Z,98055.75
2023-05-04T20:24:06.002Z,98051.34
2023-05-04T20:54:09.094Z,98034.50
2023-05-04T21:24:12.460Z,98012.28
2023-05-04T21:54:15.335Z,98007.09
2023-05-04T22:24:18.474Z,98006.25
2023-05-04T22:54:21.483Z,98003.06
2023-05-04T23:24:24.497Z,98007.88
2023-05-04T23:54:27.469Z,98004.03
